createdAt,value
2022-08-10T09:44:57.921Z,2.42
2022-08-10T09:48:02.372Z,2.67
2022-08-10T09:53:52.397Z,2.45
2022-08-10T09:56:48.350Z,2.80
2022-08-10T10:00:01.661Z,2.10
2022-08-10T10:03:09.473Z,2.45
2022-08-10T10:06:01.054Z,2.30
2022-08-10T10:09:12.713Z,2.05
2022-08-10T10:11:44.551Z,2.10
2022-08-10T10:14:27.301Z,2.60
2022-08-10T10:17:15.520Z,2.20
2022-08-10T10:20:00.710Z,2.33
2022-08-10T10:22:43.537Z,2.10
2022-08-10T10:25:23.183Z,2.58
2022-08-10T10:28:10.624Z,2.38
2022-08-10T10:30:51.910Z,2.25
2022-08-10T10:33:45.028Z,2.30
2022-08-10T10:36:16.670Z,1.95
2022-08-10T10:38:45.512Z,2.40
2022-08-10T10:42:03.199Z,2.00
2022-08-10T10:45:04.833Z,2.08
2022-08-10T10:48:09.464Z,2.10
2022-08-10T10:51:22.077Z,2.20
2022-08-10T10:54:19.321Z,2.33
2022-08-10T10:57:58.415Z,2.30
2022-08-10T11:00:22.445Z,2.25
2022-08-10T11:03:33.543Z,2.00
2022-08-10T11:06:39.412Z,2.00
2022-08-10T11:10:05.451Z,2.38
2022-08-10T11:12:27.455Z,2.10
2022-08-10T11:15:42.764Z,2.25
2022-08-10T11:18:58.256Z,2.30
2022-08-10T11:21:37.633Z,2.47
2022-08-10T11:25:02.565Z,2.70
2022-08-10T11:28:04.141Z,2.55
2022-08-10T11:30:55.442Z,2.00
2022-08-10T11:34:11.763Z,2.50
2022-08-10T11:36:51.882Z,2.20
2022-08-10T11:39:28.598Z,2.80
2022-08-10T11:42:09.668Z,2.50
2022-08-10T11:44:54.169Z,2.42
2022-08-10T11:47:34.900Z,2.28
2022-08-10T11:50:31.989Z,3.00
2022-08-10T11:53:24.812Z,2.30
2022-08-10T11:55:58.344Z,2.28
2022-08-10T11:58:51.116Z,2.15
2022-08-10T12:01:25.395Z,2.50
2022-08-10T12:03:52.689Z,2.20
2022-08-10T12:06:53.674Z,2.30
2022-08-10T12:10:09.787Z,2.35
2022-08-10T12:12:00.494Z,2.35
2022-08-10T12:14:47.031Z,2.40
2022-08-10T12:17:33.047Z,2.40
2022-08-10T12:20:10.349Z,2.40
2022-08-10T12:23:02.970Z,2.63
2022-08-10T12:25:56.952Z,2.70
2022-08-10T12:28:50.488Z,2.33
2022-08-10T12:31:25.388Z,2.20
2022-08-10T12:34:31.437Z,2.42
2022-08-10T12:37:12.977Z,2.50
2022-08-10T12:40:36.905Z,2.13
2022-08-10T12:44:07.032Z,2.33
2022-08-10T12:47:14.521Z,2.38
2022-08-10T12:50:30.354Z,2.50
2022-08-10T12:53:08.270Z,2.40
2022-08-10T12:55:38.840Z,2.50
2022-08-10T12:58:57.374Z,2.38
2022-08-10T13:01:17.450Z,2.35
2022-08-10T13:04:20.606Z,2.42
2022-08-10T13:06:47.528Z,2.28
2022-08-10T13:09:21.479Z,2.28
2022-08-10T13:12:39.329Z,2.53
2022-08-10T13:15:43.281Z,2.70
2022-08-10T13:18:01.826Z,2.40
2022-08-10T13:20:37.565Z,2.30
2022-08-10T13:23:18.696Z,2.28
2022-08-10T13:25:48.652Z,2.38
2022-08-10T13:28:36.200Z,2.20
2022-08-10T13:31:16.970Z,2.30
2022-08-10T13:34:39.510Z,2.40
2022-08-10T13:36:52.002Z,2.50
2022-08-10T13:39:23.228Z,2.58
2022-08-10T13:41:53.267Z,2.45
2022-08-10T13:44:44.707Z,2.55
2022-08-10T13:47:14.512Z,2.40
2022-08-10T13:49:50.999Z,2.47
2022-08-10T13:52:24.759Z,2.30
2022-08-10T13:54:54.074Z,2.00
2022-08-10T13:57:32.963Z,2.08
2022-08-10T14:00:35.198Z,2.10
2022-08-10T14:03:05.385Z,2.40
2022-08-10T14:05:36.433Z,2.00
2022-08-10T14:08:05.850Z,1.80
2022-08-10T14:11:09.253Z,2.17
2022-08-10T14:13:30.745Z,2.10
2022-08-10T14:15:57.777Z,2.03
2022-08-10T14:18:26.646Z,1.70
2022-08-10T14:20:58.610Z,2.20
2022-08-10T14:23:25.720Z,1.77
2022-08-10T14:25:59.821Z,1.90
2022-08-10T14:28:35.666Z,1.63
2022-08-10T14:31:07.294Z,1.90
2022-08-10T14:33:36.698Z,2.00
2022-08-10T14:36:18.997Z,2.00
2022-08-10T14:38:54.655Z,2.15
2022-08-10T14:42:01.748Z,1.67
2022-08-10T14:44:21.191Z,1.90
2022-08-10T14:46:58.111Z,1.85
2022-08-10T14:49:27.415Z,1.83
2022-08-10T14:52:01.920Z,2.00
2022-08-10T14:54:32.486Z,1.83
2022-08-10T14:57:11.494Z,1.88
2022-08-10T15:00:24.519Z,1.80
2022-08-10T15:02:55.873Z,1.77
2022-08-10T15:05:39.400Z,1.88
2022-08-10T15:08:11.804Z,1.73
2022-08-10T15:10:40.412Z,1.90
2022-08-10T15:13:34.024Z,2.03
2022-08-10T15:16:12.421Z,2.20
2022-08-10T15:18:58.356Z,2.00
2022-08-10T15:21:43.447Z,1.70
2022-08-10T15:24:38.220Z,2.10
2022-08-10T15:27:09.398Z,2.00
2022-08-10T15:29:57.428Z,2.10
2022-08-10T15:32:56.205Z,2.03
2022-08-10T15:35:45.559Z,1.85
2022-08-10T15:38:22.977Z,1.90
2022-08-10T15:40:59.803Z,2.08
2022-08-10T15:43:36.939Z,2.05
2022-08-10T15:46:32.297Z,1.70
2022-08-10T15:49:09.707Z,1.80
2022-08-10T15:51:52.818Z,2.00
2022-08-10T15:54:33.658Z,1.90
2022-08-10T15:57:10.363Z,1.80
2022-08-10T16:00:09.429Z,1.88
2022-08-10T16:03:07.855Z,1.77
2022-08-10T16:06:00.288Z,1.65
2022-08-10T16:08:36.678Z,2.05
2022-08-10T16:11:37.623Z,2.20
2022-08-10T16:14:17.628Z,2.28
2022-08-10T16:16:50.590Z,1.90
2022-08-10T16:19:24.246Z,2.10
2022-08-10T16:22:02.587Z,2.55
2022-08-10T16:24:50.321Z,1.77
2022-08-10T16:27:30.650Z,2.08
2022-08-10T16:30:06.159Z,1.98
2022-08-10T16:32:34.693Z,1.88
2022-08-10T16:35:09.366Z,1.92
2022-08-10T16:40:28.456Z,1.80
2022-08-10T16:42:56.581Z,1.85
2022-08-10T16:45:36.560Z,1.88
2022-08-10T16:48:06.606Z,2.30
2022-08-10T16:50:41.908Z,2.10
2022-08-10T16:53:14.776Z,2.08
2022-08-10T16:55:50.488Z,2.17
2022-08-10T16:58:40.453Z,1.85
2022-08-10T17:01:11.981Z,2.05
2022-08-10T17:04:07.521Z,1.90
2022-08-10T17:06:39.681Z,2.13
2022-08-10T17:09:15.915Z,1.83
2022-08-10T17:11:48.227Z,2.00
2022-08-10T17:14:15.592Z,1.88
2022-08-10T17:16:45.369Z,1.83
2022-08-10T17:19:22.402Z,1.90
2022-08-10T17:21:55.916Z,2.00
2022-08-10T17:24:34.914Z,2.00
2022-08-10T17:28:04.417Z,1.83
2022-08-10T17:30:04.604Z,2.45
2022-08-10T17:32:44.834Z,1.85
2022-08-10T17:35:22.997Z,1.90
2022-08-10T17:38:18.008Z,2.13
2022-08-10T17:43:58.450Z,1.90
2022-08-10T17:46:14.684Z,1.98
2022-08-10T17:48:43.397Z,1.88
2022-08-10T17:51:15.637Z,2.00
2022-08-10T17:53:50.080Z,1.80
2022-08-10T17:56:20.407Z,1.73
2022-08-10T17:59:09.742Z,1.90
2022-08-10T18:02:01.680Z,2.10
2022-08-10T18:04:41.323Z,2.40
2022-08-10T18:07:11.266Z,2.42
2022-08-10T18:09:52.441Z,2.30
2022-08-10T18:12:32.460Z,2.30
2022-08-10T18:15:12.220Z,2.55
2022-08-10T18:17:46.724Z,2.30
2022-08-10T18:20:20.165Z,2.00
2022-08-10T18:22:56.383Z,1.98
2022-08-10T18:25:38.070Z,2.00
2022-08-10T18:28:11.235Z,1.65
2022-08-10T18:30:49.901Z,2.00
2022-08-10T18:33:20.369Z,1.98
2022-08-10T18:35:48.275Z,1.80
2022-08-10T18:38:17.787Z,1.80
2022-08-10T18:40:53.970Z,1.52
2022-08-10T18:44:07.284Z,1.83
2022-08-10T18:46:32.016Z,1.90
2022-08-10T18:49:09.608Z,1.92
2022-08-10T18:51:46.615Z,1.98
2022-08-10T18:54:38.830Z,1.70
2022-08-10T18:57:50.068Z,1.80
2022-08-10T19:00:20.133Z,1.80
2022-08-10T19:03:11.631Z,1.60
2022-08-10T19:05:50.616Z,1.52
2022-08-10T19:08:54.783Z,1.80
2022-08-10T19:11:52.057Z,1.70
2022-08-10T19:14:30.282Z,1.90
2022-08-10T19:17:21.440Z,1.75
2022-08-10T19:20:19.036Z,1.80
2022-08-10T19:23:03.644Z,1.67
2022-08-10T19:26:43.394Z,1.58
2022-08-10T19:29:05.758Z,1.70
2022-08-10T19:32:06.376Z,1.70
2022-08-10T19:35:08.192Z,1.70
2022-08-10T19:38:00.055Z,1.30
2022-08-10T19:41:10.285Z,1.55
2022-08-10T19:43:59.968Z,2.22
2022-08-10T19:46:48.769Z,1.60
2022-08-10T19:50:16.518Z,1.90
2022-08-10T19:53:09.500Z,1.63
2022-08-10T19:56:18.744Z,1.95
2022-08-10T20:00:16.235Z,1.67
2022-08-10T20:02:27.209Z,2.10
2022-08-10T20:05:23.076Z,1.80
2022-08-10T20:08:06.016Z,2.03
2022-08-10T20:10:47.704Z,2.00
2022-08-10T20:13:51.820Z,1.60
2022-08-10T20:16:34.915Z,1.80
2022-08-10T20:19:53.307Z,1.98
2022-08-10T20:22:29.665Z,2.10
2022-08-10T20:25:17.662Z,2.13
2022-08-10T20:28:21.761Z,1.83
2022-08-10T20:31:03.177Z,1.70
2022-08-10T20:34:00.713Z,2.05
2022-08-10T20:36:38.133Z,1.45
2022-08-10T20:39:18.587Z,1.80
2022-08-10T20:41:58.168Z,1.60
2022-08-10T20:45:08.100Z,1.80
2022-08-10T20:47:58.990Z,1.80
2022-08-10T20:50:42.469Z,1.45
2022-08-10T20:53:17.061Z,1.80
2022-08-10T20:56:09.045Z,1.70
2022-08-10T20:59:28.953Z,1.90
2022-08-10T21:02:50.285Z,2.00
2022-08-10T21:08:35.560Z,1.92
2022-08-10T21:11:18.592Z,2.20
2022-08-10T21:14:10.538Z,2.20
2022-08-10T21:16:57.693Z,2.22
2022-08-10T21:20:08.605Z,2.40
2022-08-10T21:22:47.163Z,2.50
2022-08-10T21:25:29.470Z,2.60
2022-08-10T21:28:54.153Z,1.98
2022-08-10T21:31:48.483Z,2.10
2022-08-10T21:34:54.478Z,2.70
2022-08-10T21:37:39.584Z,3.15
2022-08-10T21:40:40.564Z,3.33
2022-08-10T21:44:03.744Z,4.07
2022-08-10T21:47:39.579Z,2.50
2022-08-10T21:50:27.556Z,3.45
2022-08-10T21:53:43.967Z,3.22
2022-08-10T21:56:50.374Z,3.10
2022-08-10T21:59:49.740Z,3.10
2022-08-10T22:02:50.180Z,3.33
2022-08-10T22:05:47.114Z,3.30
2022-08-10T22:08:39.544Z,2.95
2022-08-10T22:11:37.926Z,2.58
2022-08-10T22:14:26.816Z,2.65
2022-08-10T22:18:01.045Z,2.33
2022-08-10T22:20:40.930Z,2.45
2022-08-10T22:23:35.979Z,2.78
2022-08-10T22:26:56.544Z,2.43
2022-08-10T22:30:03.822Z,2.70
2022-08-10T22:33:26.402Z,2.60
2022-08-10T22:36:20.996Z,2.25
2022-08-10T22:40:11.683Z,2.65
2022-08-10T22:42:58.223Z,2.80
2022-08-10T22:45:55.805Z,2.60
2022-08-10T22:48:41.302Z,2.67
2022-08-10T22:51:55.559Z,3.03
2022-08-10T22:54:52.085Z,2.42
2022-08-10T22:57:38.085Z,3.20
2022-08-10T23:00:18.224Z,3.65
2022-08-10T23:03:21.733Z,3.05
2022-08-10T23:06:06.786Z,3.65
2022-08-10T23:08:51.405Z,4.03
2022-08-10T23:11:29.343Z,3.53
2022-08-10T23:14:18.394Z,3.83
2022-08-10T23:17:09.463Z,3.35
2022-08-10T23:19:45.771Z,3.70
2022-08-10T23:22:16.740Z,3.97
2022-08-10T23:25:04.902Z,3.83
2022-08-10T23:27:37.657Z,3.72
2022-08-10T23:30:17.679Z,3.60
2022-08-10T23:32:50.725Z,3.33
2022-08-10T23:36:31.540Z,4.28
2022-08-10T23:38:14.749Z,3.10
2022-08-10T23:40:50.518Z,3.72
2022-08-10T23:43:40.835Z,4.03
2022-08-10T23:46:13.851Z,3.35
2022-08-10T23:48:45.777Z,3.20
2022-08-10T23:51:16.959Z,3.03
2022-08-10T23:53:47.259Z,3.40
2022-08-10T23:56:25.071Z,3.17
2022-08-10T23:58:57.437Z,3.13
